Time;durP1;ratioP1;P1;durP2;ratioP2;P2;SDS_P1;SDS_P2;PMS_P1;PMS_P2;Temp;Humidity;BMP_temperature;BMP_pressure;BME280_temperature;BME280_humidity;BME280_pressure;Samples;Min_cycle;Max_cycle;Signal;HPM_P1;HPM_P2
2023/08/07 00:00:17;;;;;;;3.22;1.30;;;13.20;99.90;;;;;;4994411;28;20026;-77
2023/08/07 00:02:42;;;;;;;5.45;1.52;;;13.20;99.90;;;;;;4973923;28;20045;-77
2023/08/07 00:05:08;;;;;;;4.97;1.23;;;13.20;99.90;;;;;;4998850;28;20018;-77
2023/08/07 00:07:34;;;;;;;2.13;1.58;;;13.20;99.90;;;;;;4991922;28;20025;-77
2023/08/07 00:10:01;;;;;;;3.80;1.40;;;13.20;99.90;;;;;;4997403;28;20026;-77
2023/08/07 00:12:27;;;;;;;3.75;1.20;;;13.10;99.90;;;;;;4984209;28;20034;-77
2023/08/07 00:14:52;;;;;;;2.50;1.52;;;13.20;99.90;;;;;;4995416;28;20030;-77
2023/08/07 00:17:18;;;;;;;3.28;1.90;;;13.10;99.90;;;;;;4983028;28;20048;-77
2023/08/07 00:19:43;;;;;;;3.40;2.25;;;13.10;99.90;;;;;;4979675;28;20045;-78
2023/08/07 00:22:09;;;;;;;3.63;1.92;;;13.10;99.90;;;;;;4978865;28;20037;-78
2023/08/07 00:24:35;;;;;;;4.28;2.33;;;13.10;99.90;;;;;;4970229;28;20034;-77
2023/08/07 00:27:00;;;;;;;9.02;3.03;;;13.10;99.90;;;;;;4993370;28;20149;-77
2023/08/07 00:29:26;;;;;;;11.35;3.15;;;13.10;99.90;;;;;;4995537;28;20137;-78
2023/08/07 00:31:51;;;;;;;8.75;3.35;;;13.20;99.90;;;;;;4996111;28;20061;-77
2023/08/07 00:34:17;;;;;;;6.10;3.17;;;13.20;99.90;;;;;;4997139;28;20050;-78
2023/08/07 00:36:43;;;;;;;9.60;4.65;;;13.10;99.90;;;;;;4996143;28;20125;-78
2023/08/07 00:39:09;;;;;;;11.68;3.90;;;13.10;99.90;;;;;;4996186;28;20053;-77
2023/08/07 00:41:35;;;;;;;6.72;3.50;;;13.20;99.90;;;;;;4997486;28;20133;-78
2023/08/07 00:44:00;;;;;;;9.10;3.72;;;13.20;99.90;;;;;;4979786;28;20434;-78
2023/08/07 00:46:27;;;;;;;6.78;2.15;;;13.10;99.90;;;;;;4995354;28;20037;-77
2023/08/07 00:48:53;;;;;;;5.28;2.25;;;13.20;99.90;;;;;;4995520;28;20798;-77
2023/08/07 00:51:19;;;;;;;2.88;1.92;;;13.20;99.90;;;;;;4980567;28;20069;-78
2023/08/07 00:53:45;;;;;;;8.50;3.10;;;13.10;99.90;;;;;;4997184;28;20030;-77
2023/08/07 00:56:11;;;;;;;7.43;2.95;;;13.10;99.90;;;;;;4981164;28;20167;-77
2023/08/07 00:58:36;;;;;;;6.38;2.65;;;13.10;99.90;;;;;;4970323;28;20117;-78
2023/08/07 01:01:02;;;;;;;8.45;3.13;;;13.10;99.90;;;;;;4978388;28;20113;-77
2023/08/07 01:03:28;;;;;;;5.68;2.90;;;13.10;99.90;;;;;;4994424;28;20112;-77
2023/08/07 01:05:54;;;;;;;6.55;3.15;;;13.00;99.90;;;;;;4995227;28;20404;-77
2023/08/07 01:08:20;;;;;;;6.35;2.70;;;13.10;99.90;;;;;;4981109;28;20033;-77
2023/08/07 01:10:59;;;;;;;4.55;2.33;;;13.10;99.90;;;;;;4997064;28;20462;-78
2023/08/07 01:13:29;;;;;;;7.10;3.30;;;13.00;99.90;;;;;;4996732;28;20061;-78
2023/08/07 01:15:57;;;;;;;7.13;4.05;;;13.00;99.90;;;;;;4978969;28;20030;-77
2023/08/07 01:18:22;;;;;;;11.00;3.40;;;13.00;99.90;;;;;;4997997;28;20033;-77
2023/08/07 01:20:50;;;;;;;8.95;3.45;;;13.00;99.90;;;;;;4978088;28;20481;-76
2023/08/07 01:23:16;;;;;;;14.77;3.22;;;13.10;99.90;;;;;;4993940;28;20061;-77
2023/08/07 01:25:42;;;;;;;7.28;3.13;;;13.00;99.90;;;;;;4993416;28;20121;-77
2023/08/07 01:28:19;;;;;;;9.60;2.50;;;13.00;99.90;;;;;;4982110;28;20080;-77
2023/08/07 01:30:47;;;;;;;5.97;2.42;;;13.00;99.90;;;;;;4982156;28;20034;-77
2023/08/07 01:33:18;;;;;;;5.50;2.88;;;13.00;99.90;;;;;;4946410;28;20123;-77
2023/08/07 01:35:46;;;;;;;11.07;2.63;;;13.00;99.90;;;;;;4994736;28;20068;-77
2023/08/07 01:38:15;;;;;;;12.40;2.80;;;12.90;99.90;;;;;;4980490;28;20093;-77
2023/08/07 01:40:40;;;;;;;6.72;2.45;;;12.90;99.90;;;;;;4984931;28;20034;-77
2023/08/07 01:43:06;;;;;;;8.55;2.50;;;13.00;99.90;;;;;;4989951;28;20048;-77
2023/08/07 01:45:32;;;;;;;4.47;1.77;;;13.00;99.90;;;;;;4992476;28;20070;-77
2023/08/07 01:47:57;;;;;;;4.78;2.40;;;13.00;99.90;;;;;;4992072;28;20093;-77
2023/08/07 01:50:23;;;;;;;4.80;3.25;;;13.00;99.90;;;;;;4995780;28;20018;-77
2023/08/07 01:52:49;;;;;;;4.57;2.17;;;13.10;99.90;;;;;;4978061;28;20108;-76
2023/08/07 01:55:18;;;;;;;2.97;2.45;;;12.90;99.90;;;;;;4980126;28;20502;-77
2023/08/07 01:57:44;;;;;;;6.38;2.47;;;13.00;99.90;;;;;;4967292;28;20698;-76
2023/08/07 02:00:10;;;;;;;4.18;2.63;;;13.10;99.90;;;;;;4994931;28;20128;-76
2023/08/07 02:02:36;;;;;;;5.50;2.65;;;12.90;99.90;;;;;;4993782;28;20595;-78
2023/08/07 02:05:02;;;;;;;4.25;1.98;;;13.00;99.90;;;;;;4961268;28;20085;-77
2023/08/07 02:07:27;;;;;;;4.63;2.15;;;12.90;99.90;;;;;;4974867;28;20116;-77
2023/08/07 02:09:53;;;;;;;7.78;2.90;;;12.90;99.90;;;;;;4978816;28;20034;-77
2023/08/07 02:12:18;;;;;;;2.38;1.92;;;12.90;99.90;;;;;;4996282;28;20109;-77
2023/08/07 02:14:44;;;;;;;2.17;1.60;;;12.90;99.90;;;;;;4967200;28;20085;-77
2023/08/07 02:17:09;;;;;;;1.35;1.25;;;13.00;99.90;;;;;;4976509;28;20157;-76
2023/08/07 02:19:35;;;;;;;6.82;2.42;;;12.90;99.90;;;;;;4994841;28;20035;-76
2023/08/07 02:22:01;;;;;;;3.55;1.67;;;12.90;99.90;;;;;;4964679;28;20101;-76
2023/08/07 02:24:27;;;;;;;4.88;1.58;;;12.90;99.90;;;;;;4992792;28;20406;-75
2023/08/07 02:26:52;;;;;;;4.68;1.92;;;12.90;99.90;;;;;;4979202;28;20030;-77
2023/08/07 02:29:18;;;;;;;4.00;1.73;;;12.90;99.90;;;;;;4995537;28;20060;-76
2023/08/07 02:31:43;;;;;;;4.57;1.65;;;12.90;99.90;;;;;;4993682;28;20034;-76
2023/08/07 02:34:09;;;;;;;1.83;1.30;;;12.90;99.90;;;;;;4990755;28;20022;-76
2023/08/07 02:36:34;;;;;;;1.35;1.25;;;12.90;99.90;;;;;;4984358;28;20045;-77
2023/08/07 02:39:00;;;;;;;4.93;1.73;;;12.90;99.90;;;;;;4996192;28;20034;-77
2023/08/07 02:41:26;;;;;;;1.65;1.48;;;12.90;99.90;;;;;;4986628;28;20172;-76
2023/08/07 02:43:51;;;;;;;4.40;1.80;;;12.90;99.90;;;;;;5000598;28;20505;-77
2023/08/07 02:46:17;;;;;;;2.05;1.60;;;12.90;99.90;;;;;;4997952;28;20037;-76
2023/08/07 02:48:43;;;;;;;4.50;2.13;;;12.90;99.90;;;;;;4998956;28;20042;-76
2023/08/07 02:51:09;;;;;;;7.78;2.22;;;12.80;99.90;;;;;;4979827;28;20033;-77
2023/08/07 02:53:34;;;;;;;6.78;2.72;;;12.80;99.90;;;;;;4969706;28;20107;-77
2023/08/07 02:56:00;;;;;;;6.55;2.85;;;12.80;99.90;;;;;;4991229;28;20043;-76
2023/08/07 02:58:26;;;;;;;6.68;3.40;;;12.90;99.90;;;;;;4988031;28;20115;-76
2023/08/07 03:00:51;;;;;;;9.25;3.67;;;12.80;99.90;;;;;;5002677;28;20045;-77
2023/08/07 03:03:17;;;;;;;10.18;4.28;;;12.90;99.90;;;;;;4995029;28;20038;-76
2023/08/07 03:05:51;;;;;;;5.78;4.13;;;12.80;99.90;;;;;;4997991;28;20461;-77
2023/08/07 03:08:17;;;;;;;8.88;4.07;;;12.80;99.90;;;;;;4998835;28;20502;-77
2023/08/07 03:10:49;;;;;;;8.25;3.75;;;12.80;99.90;;;;;;5000701;28;20034;-78
2023/08/07 03:13:15;;;;;;;7.28;3.38;;;12.90;99.90;;;;;;4983164;28;20474;-78
2023/08/07 03:15:40;;;;;;;7.68;3.20;;;12.90;99.90;;;;;;4998592;28;20130;-77
2023/08/07 03:18:06;;;;;;;7.60;2.47;;;12.80;99.90;;;;;;4997189;28;20053;-77
2023/08/07 03:20:31;;;;;;;8.95;3.67;;;12.80;99.90;;;;;;4999828;28;20042;-78
2023/08/07 03:22:57;;;;;;;4.40;2.25;;;12.90;99.90;;;;;;4983324;28;20062;-78
2023/08/07 03:25:22;;;;;;;9.27;3.17;;;12.80;99.90;;;;;;4998528;28;20030;-78
2023/08/07 03:27:48;;;;;;;5.03;2.70;;;12.80;99.90;;;;;;4996372;28;20042;-79
2023/08/07 03:30:13;;;;;;;7.55;2.85;;;12.80;99.90;;;;;;4999299;28;20496;-79
2023/08/07 03:32:41;;;;;;;4.22;2.08;;;12.80;99.90;;;;;;4982788;28;20525;-78
2023/08/07 03:35:07;;;;;;;10.38;3.92;;;12.80;99.90;;;;;;4986034;28;20724;-78
2023/08/07 03:37:33;;;;;;;9.88;4.15;;;12.80;99.90;;;;;;4996271;28;20040;-77
2023/08/07 03:39:58;;;;;;;8.82;4.60;;;12.80;99.90;;;;;;4999468;28;20037;-79
2023/08/07 03:42:24;;;;;;;11.52;4.40;;;12.80;99.90;;;;;;4994629;28;20103;-78
2023/08/07 03:44:52;;;;;;;10.55;4.18;;;12.80;99.90;;;;;;4994241;28;20085;-78
2023/08/07 03:47:18;;;;;;;9.88;4.13;;;12.80;99.90;;;;;;4996466;28;20084;-78
2023/08/07 03:49:43;;;;;;;13.98;4.38;;;12.80;99.90;;;;;;4997734;28;20038;-79
2023/08/07 03:52:10;;;;;;;10.63;3.95;;;12.70;99.90;;;;;;4995665;28;20073;-77
2023/08/07 03:54:35;;;;;;;11.23;5.35;;;12.80;99.90;;;;;;4997667;28;20442;-79
2023/08/07 03:57:01;;;;;;;9.45;3.63;;;12.80;99.90;;;;;;4983339;28;20138;-78
2023/08/07 03:59:26;;;;;;;11.10;4.60;;;12.80;99.90;;;;;;4985348;28;20506;-77
2023/08/07 04:01:52;;;;;;;12.32;5.18;;;12.80;99.90;;;;;;4997044;28;20041;-79
2023/08/07 04:04:17;;;;;;;16.90;5.32;;;12.80;99.90;;;;;;4998342;28;20117;-78
2023/08/07 04:06:43;;;;;;;14.75;5.00;;;12.70;99.90;;;;;;4983322;28;20030;-78
2023/08/07 04:09:10;;;;;;;13.48;5.22;;;12.70;99.90;;;;;;4997073;28;20085;-79
2023/08/07 04:11:36;;;;;;;8.18;4.43;;;12.70;99.90;;;;;;4998690;28;20478;-80
2023/08/07 04:14:01;;;;;;;7.35;3.45;;;12.70;99.90;;;;;;4998095;28;20064;-79
2023/08/07 04:16:27;;;;;;;10.73;3.85;;;12.70;99.90;;;;;;4994163;28;20038;-79
2023/08/07 04:18:53;;;;;;;15.07;4.90;;;12.70;99.90;;;;;;4975196;28;20031;-79
2023/08/07 04:21:18;;;;;;;12.88;5.88;;;12.70;99.90;;;;;;4980027;28;20125;-79
2023/08/07 04:23:44;;;;;;;16.10;5.22;;;12.70;99.90;;;;;;4996240;28;20372;-79
2023/08/07 04:26:09;;;;;;;10.45;4.05;;;12.70;99.90;;;;;;4983678;28;20596;-79
2023/08/07 04:28:35;;;;;;;14.88;5.10;;;12.70;99.90;;;;;;4970500;28;20077;-79
2023/08/07 04:31:00;;;;;;;13.25;4.45;;;12.70;99.90;;;;;;4998111;28;20572;-81
2023/08/07 04:33:27;;;;;;;6.32;2.65;;;12.70;99.90;;;;;;4980831;28;20037;-80
2023/08/07 04:35:53;;;;;;;7.65;3.17;;;12.70;99.90;;;;;;4993661;28;20044;-80
2023/08/07 04:38:20;;;;;;;15.23;4.57;;;12.70;99.90;;;;;;4982924;28;20030;-80
2023/08/07 04:40:49;;;;;;;12.77;5.30;;;12.70;99.90;;;;;;4993581;28;20504;-80
2023/08/07 04:43:15;;;;;;;10.13;3.80;;;12.70;99.90;;;;;;4967351;28;20643;-80
2023/08/07 04:45:41;;;;;;;7.50;4.25;;;12.70;99.90;;;;;;4983501;28;20034;-80
2023/08/07 04:48:07;;;;;;;15.75;4.70;;;12.70;99.90;;;;;;4986202;28;20040;-80
2023/08/07 04:50:33;;;;;;;13.43;3.25;;;12.70;99.90;;;;;;4998614;28;20516;-80
2023/08/07 04:52:58;;;;;;;14.60;3.85;;;12.70;99.90;;;;;;4996731;28;20042;-80
2023/08/07 04:55:24;;;;;;;8.27;3.30;;;12.80;99.90;;;;;;4999234;28;20062;-80
2023/08/07 04:57:54;;;;;;;11.05;3.72;;;12.70;99.90;;;;;;4994066;28;20034;-79
2023/08/07 05:00:19;;;;;;;12.55;3.17;;;12.70;99.90;;;;;;5011430;28;20569;-80
2023/08/07 05:02:45;;;;;;;9.77;3.08;;;12.70;99.90;;;;;;4985877;28;20037;-80
2023/08/07 05:05:11;;;;;;;8.00;2.88;;;12.80;99.90;;;;;;4995925;28;20030;-80
2023/08/07 05:07:36;;;;;;;9.27;3.13;;;12.80;99.90;;;;;;4983400;28;20042;-79
2023/08/07 05:10:02;;;;;;;12.98;3.03;;;12.80;99.90;;;;;;4994250;28;20133;-81
2023/08/07 05:12:28;;;;;;;12.35;2.95;;;12.80;99.90;;;;;;4962976;28;20040;-80
2023/08/07 05:14:53;;;;;;;9.95;2.42;;;12.80;99.90;;;;;;4982996;28;20088;-79
2023/08/07 05:17:19;;;;;;;10.27;2.70;;;12.80;99.90;;;;;;4992942;28;20042;-79
2023/08/07 05:19:45;;;;;;;11.63;3.10;;;12.80;99.90;;;;;;4996989;28;20399;-79
2023/08/07 05:22:10;;;;;;;8.75;2.53;;;12.80;99.90;;;;;;4996302;28;20103;-79
2023/08/07 05:24:38;;;;;;;4.00;1.50;;;12.90;99.90;;;;;;4996748;28;20049;-79
2023/08/07 05:27:13;;;;;;;4.90;1.58;;;12.80;99.90;;;;;;4994620;28;20706;-79
2023/08/07 05:29:44;;;;;;;8.48;2.92;;;12.80;99.90;;;;;;4993277;28;20083;-79
2023/08/07 05:32:14;;;;;;;4.30;1.42;;;12.80;99.90;;;;;;4997101;28;20049;-80
2023/08/07 05:34:40;;;;;;;3.75;1.90;;;12.80;99.90;;;;;;4995369;28;20038;-79
2023/08/07 05:37:06;;;;;;;6.07;2.00;;;12.80;99.90;;;;;;4995036;28;20042;-79
2023/08/07 05:39:32;;;;;;;5.53;2.22;;;12.80;99.90;;;;;;4995696;28;20038;-79
2023/08/07 05:41:58;;;;;;;8.05;2.55;;;12.80;99.90;;;;;;4991425;28;20581;-78
2023/08/07 05:44:24;;;;;;;7.78;2.38;;;12.80;99.90;;;;;;4961117;28;20428;-79
2023/08/07 05:46:50;;;;;;;6.68;2.35;;;12.80;99.90;;;;;;4994148;28;20129;-79
2023/08/07 05:49:16;;;;;;;5.43;1.65;;;12.70;99.90;;;;;;4965660;28;20042;-79
2023/08/07 05:51:41;;;;;;;4.40;2.10;;;12.70;99.90;;;;;;4973688;28;20426;-79
2023/08/07 05:54:07;;;;;;;3.45;1.70;;;12.70;99.90;;;;;;4991609;28;20041;-80
2023/08/07 05:56:32;;;;;;;4.75;1.42;;;12.80;99.90;;;;;;4994030;28;20406;-79
2023/08/07 05:58:58;;;;;;;4.15;1.10;;;12.80;99.90;;;;;;4997507;28;20540;-79
2023/08/07 06:01:29;;;;;;;3.15;1.80;;;12.70;99.90;;;;;;4994846;28;20034;-79
2023/08/07 06:03:54;;;;;;;2.38;1.20;;;12.80;99.90;;;;;;4970041;28;20042;-80
2023/08/07 06:06:20;;;;;;;7.50;2.03;;;12.70;99.90;;;;;;4995236;28;20070;-78
2023/08/07 06:08:46;;;;;;;3.92;1.33;;;12.90;99.90;;;;;;4994602;28;20030;-78
2023/08/07 06:11:14;;;;;;;4.15;1.35;;;12.70;99.90;;;;;;4981565;28;22365;-78
2023/08/07 06:13:42;;;;;;;5.65;1.35;;;12.80;99.90;;;;;;4998811;28;20078;-79
2023/08/07 06:16:08;;;;;;;4.75;1.63;;;12.70;99.90;;;;;;4999472;28;20045;-78
2023/08/07 06:18:34;;;;;;;6.45;2.38;;;12.80;99.90;;;;;;4998025;28;20030;-78
2023/08/07 06:20:59;;;;;;;3.47;1.90;;;12.80;99.90;;;;;;5001254;28;20042;-78
2023/08/07 06:23:26;;;;;;;9.38;2.58;;;12.80;99.90;;;;;;4986296;28;20029;-77
2023/08/07 06:25:51;;;;;;;4.07;2.63;;;12.80;99.90;;;;;;5001757;28;20511;-78
2023/08/07 06:28:17;;;;;;;4.22;2.35;;;12.80;99.90;;;;;;4999430;28;20037;-78
2023/08/07 06:30:43;;;;;;;11.05;2.95;;;12.80;99.90;;;;;;4996438;28;20041;-78
2023/08/07 06:33:08;;;;;;;7.15;2.80;;;12.80;99.90;;;;;;5013260;28;20694;-78
2023/08/07 06:35:42;;;;;;;11.45;3.90;;;12.80;99.90;;;;;;5001430;28;20137;-78
2023/08/07 06:38:08;;;;;;;3.33;2.95;;;12.80;99.90;;;;;;4981778;28;20031;-78
2023/08/07 06:40:35;;;;;;;9.05;3.60;;;12.90;99.90;;;;;;4984251;28;20076;-78
2023/08/07 06:43:00;;;;;;;4.18;3.03;;;12.90;99.90;;;;;;4971364;28;20110;-78
2023/08/07 06:45:26;;;;;;;8.05;3.78;;;13.00;99.90;;;;;;4981614;28;20121;-78
2023/08/07 06:47:52;;;;;;;5.55;3.28;;;13.00;99.90;;;;;;4998334;28;20501;-78
2023/08/07 06:50:17;;;;;;;4.65;2.47;;;13.10;99.90;;;;;;4970743;28;20478;-77
2023/08/07 06:52:43;;;;;;;6.40;3.47;;;13.10;99.90;;;;;;4979981;28;20042;-77
2023/08/07 06:55:08;;;;;;;9.77;3.38;;;13.20;99.90;;;;;;4969090;28;20494;-78
2023/08/07 06:57:34;;;;;;;6.90;2.95;;;13.20;99.90;;;;;;4997927;28;20035;-77
2023/08/07 07:00:00;;;;;;;11.90;3.78;;;13.20;99.90;;;;;;4997381;28;20034;-78
2023/08/07 07:02:26;;;;;;;9.13;4.10;;;13.20;99.90;;;;;;4995170;28;20117;-77
2023/08/07 07:04:51;;;;;;;7.68;3.35;;;13.20;99.90;;;;;;4998125;28;20073;-76
2023/08/07 07:07:17;;;;;;;3.17;2.17;;;13.20;99.90;;;;;;4996980;28;20610;-76
2023/08/07 07:09:42;;;;;;;5.57;3.08;;;13.30;99.90;;;;;;4993846;28;20042;-76
2023/08/07 07:12:08;;;;;;;5.70;2.72;;;13.20;99.90;;;;;;4979365;28;20056;-76
2023/08/07 07:14:34;;;;;;;7.40;3.17;;;13.20;99.90;;;;;;4981622;28;20030;-77
2023/08/07 07:17:00;;;;;;;15.05;3.92;;;13.40;99.90;;;;;;4994156;28;20035;-76
2023/08/07 07:19:25;;;;;;;7.43;3.35;;;13.30;99.90;;;;;;4997858;28;20064;-76
2023/08/07 07:21:51;;;;;;;7.18;3.47;;;13.30;99.90;;;;;;4994750;28;20041;-76
2023/08/07 07:24:17;;;;;;;4.78;2.92;;;13.30;99.90;;;;;;4976866;28;20117;-76
2023/08/07 07:26:42;;;;;;;8.60;3.60;;;13.30;99.90;;;;;;4991713;28;20049;-77
2023/08/07 07:29:08;;;;;;;8.32;3.63;;;13.30;99.90;;;;;;4978328;28;20069;-77
2023/08/07 07:31:34;;;;;;;4.68;2.20;;;13.30;99.90;;;;;;4994904;28;20064;-76
2023/08/07 07:33:59;;;;;;;3.95;3.30;;;13.30;99.90;;;;;;5015501;28;20025;-77
2023/08/07 07:36:25;;;;;;;5.15;3.35;;;13.40;99.90;;;;;;4999608;28;20036;-77
2023/08/07 07:38:50;;;;;;;5.28;3.25;;;13.40;99.90;;;;;;5000819;28;20573;-77
2023/08/07 07:41:17;;;;;;;4.90;3.25;;;13.30;99.90;;;;;;4998838;28;20045;-77
2023/08/07 07:43:42;;;;;;;6.07;4.20;;;13.40;99.90;;;;;;4999069;28;20040;-77
2023/08/07 07:46:08;;;;;;;6.68;3.60;;;13.40;99.90;;;;;;4961479;28;20042;-78
2023/08/07 07:48:34;;;;;;;6.90;4.32;;;13.30;99.90;;;;;;4998683;28;20041;-77
2023/08/07 07:51:00;;;;;;;9.30;4.25;;;13.30;99.90;;;;;;4994497;28;20034;-78
2023/08/07 07:53:27;;;;;;;9.85;3.58;;;13.30;99.90;;;;;;4997153;28;20030;-77
2023/08/07 07:55:52;;;;;;;9.82;3.28;;;13.30;99.90;;;;;;4996119;28;20053;-78
2023/08/07 07:58:20;;;;;;;11.80;4.80;;;13.30;99.90;;;;;;4994334;28;20560;-77
2023/08/07 08:00:46;;;;;;;6.13;3.28;;;13.40;99.90;;;;;;4982423;28;20092;-77
2023/08/07 08:03:12;;;;;;;4.18;2.38;;;13.40;99.90;;;;;;4978591;28;20432;-77
2023/08/07 08:05:38;;;;;;;10.63;4.18;;;13.40;99.90;;;;;;4998034;28;20030;-77
2023/08/07 08:08:06;;;;;;;9.73;4.22;;;13.40;99.90;;;;;;4985351;28;20051;-77
2023/08/07 08:10:32;;;;;;;4.82;2.72;;;13.50;99.90;;;;;;4981021;28;20769;-77
2023/08/07 08:13:00;;;;;;;7.40;3.25;;;13.50;99.90;;;;;;4983622;28;20076;-77
2023/08/07 08:15:28;;;;;;;6.70;3.67;;;13.50;99.90;;;;;;4999148;28;20030;-77
2023/08/07 08:17:53;;;;;;;11.45;5.32;;;13.50;99.90;;;;;;4998290;28;20065;-77
2023/08/07 08:20:19;;;;;;;9.35;5.40;;;13.50;99.90;;;;;;4982688;28;20054;-78
2023/08/07 08:22:45;;;;;;;10.70;5.20;;;13.60;99.90;;;;;;4995246;28;20030;-77
2023/08/07 08:25:11;;;;;;;7.93;4.45;;;13.60;99.90;;;;;;4986610;28;20826;-77
2023/08/07 08:27:37;;;;;;;12.65;5.10;;;13.60;99.90;;;;;;4982870;28;20126;-77
2023/08/07 08:30:04;;;;;;;9.90;4.82;;;13.70;99.90;;;;;;4997995;28;20108;-77
2023/08/07 08:32:29;;;;;;;12.70;4.97;;;13.70;99.90;;;;;;5001108;28;20041;-78
2023/08/07 08:34:55;;;;;;;11.30;4.93;;;13.80;99.90;;;;;;4997610;28;20038;-77
2023/08/07 08:37:20;;;;;;;9.65;5.05;;;13.90;99.90;;;;;;4980648;28;20045;-77
2023/08/07 08:39:46;;;;;;;10.77;4.78;;;13.90;99.90;;;;;;4965215;28;20038;-77
2023/08/07 08:42:27;;;;;;;8.80;4.40;;;14.00;99.90;;;;;;4985161;28;20112;-77
2023/08/07 08:44:53;;;;;;;9.05;5.18;;;14.00;99.90;;;;;;4996725;28;20400;-77
2023/08/07 08:47:20;;;;;;;10.25;5.40;;;14.00;99.90;;;;;;4982149;28;20040;-77
2023/08/07 08:50:08;;;;;;;6.22;4.63;;;14.10;99.90;;;;;;4982573;28;20399;-78
2023/08/07 08:52:36;;;;;;;12.73;6.95;;;14.20;99.90;;;;;;4996113;28;20504;-77
2023/08/07 08:55:02;;;;;;;20.15;6.80;;;14.50;99.90;;;;;;4993996;28;20493;-77
2023/08/07 08:57:28;;;;;;;12.25;6.20;;;14.60;99.90;;;;;;4998449;28;20030;-77
2023/08/07 08:59:55;;;;;;;11.20;5.50;;;14.70;99.90;;;;;;4981239;28;20737;-77
2023/08/07 09:02:20;;;;;;;16.08;7.47;;;14.90;99.90;;;;;;4985021;28;20029;-77
2023/08/07 09:04:46;;;;;;;16.25;5.72;;;14.90;99.90;;;;;;4996988;28;20034;-77
2023/08/07 09:07:13;;;;;;;12.73;5.47;;;15.00;99.90;;;;;;4984693;28;20029;-77
2023/08/07 09:09:40;;;;;;;7.85;4.53;;;15.00;99.90;;;;;;4986354;28;20038;-77
2023/08/07 09:12:07;;;;;;;10.07;5.18;;;15.10;99.90;;;;;;4999772;28;20052;-77
2023/08/07 09:14:33;;;;;;;10.77;4.95;;;15.20;99.90;;;;;;5000977;28;20080;-77
2023/08/07 09:16:59;;;;;;;7.93;3.83;;;15.20;99.90;;;;;;4997667;28;20065;-76
2023/08/07 09:19:25;;;;;;;8.80;4.70;;;15.30;99.90;;;;;;4995353;28;20100;-77
2023/08/07 09:21:51;;;;;;;14.30;5.05;;;15.40;99.90;;;;;;5001173;28;20073;-76
2023/08/07 09:24:19;;;;;;;7.53;4.95;;;15.60;99.90;;;;;;4994916;28;20084;-77
2023/08/07 09:26:45;;;;;;;11.55;5.13;;;15.70;99.90;;;;;;4996511;28;20034;-77
2023/08/07 09:29:10;;;;;;;11.77;4.63;;;16.00;99.90;;;;;;4978662;28;20248;-77
2023/08/07 09:31:42;;;;;;;13.48;4.97;;;16.00;99.90;;;;;;4999775;28;20054;-77
2023/08/07 09:34:08;;;;;;;11.15;4.22;;;16.20;99.90;;;;;;4997361;28;20425;-76
2023/08/07 09:36:33;;;;;;;9.38;3.70;;;16.20;99.90;;;;;;4997239;28;20097;-77
2023/08/07 09:39:02;;;;;;;10.27;4.50;;;16.50;99.90;;;;;;4983479;28;20046;-77
2023/08/07 09:41:29;;;;;;;10.90;3.97;;;16.70;99.90;;;;;;4997348;28;20030;-76
2023/08/07 09:43:55;;;;;;;6.20;2.30;;;16.80;99.90;;;;;;4979626;28;20041;-78
2023/08/07 09:46:21;;;;;;;8.90;3.30;;;16.90;99.90;;;;;;5013665;28;20033;-77
2023/08/07 09:48:47;;;;;;;3.75;1.80;;;16.90;99.90;;;;;;4965819;28;20121;-77
2023/08/07 09:51:12;;;;;;;12.48;4.18;;;16.80;99.90;;;;;;4998498;28;20046;-78
2023/08/07 09:53:38;;;;;;;8.43;3.55;;;16.60;99.90;;;;;;4998027;28;20057;-78
2023/08/07 09:56:04;;;;;;;6.47;2.55;;;16.50;99.90;;;;;;4993949;28;20046;-77
2023/08/07 09:58:31;;;;;;;14.90;3.67;;;16.20;99.90;;;;;;5014458;28;21498;-78
2023/08/07 10:01:04;;;;;;;9.45;3.15;;;16.10;99.90;;;;;;5002482;28;20050;-78
2023/08/07 10:03:30;;;;;;;5.13;2.88;;;16.10;99.90;;;;;;4995558;28;20044;-77
2023/08/07 10:05:56;;;;;;;9.02;4.05;;;16.20;99.90;;;;;;5013532;28;20033;-77
2023/08/07 10:08:22;;;;;;;10.88;4.28;;;16.20;99.90;;;;;;5000481;28;20393;-77
2023/08/07 10:10:48;;;;;;;10.50;4.15;;;16.20;99.90;;;;;;5001705;28;20037;-76
2023/08/07 10:13:16;;;;;;;14.10;5.18;;;16.20;99.90;;;;;;5003291;28;20033;-77
2023/08/07 10:15:42;;;;;;;8.25;3.90;;;16.20;99.90;;;;;;4297616;28;10000471;-76
2023/08/07 10:18:14;;;;;;;4.85;2.33;;;16.30;99.90;;;;;;5012810;28;20029;-76
2023/08/07 10:20:42;;;;;;;15.30;5.32;;;16.20;99.90;;;;;;4998898;28;20033;-78
2023/08/07 10:23:10;;;;;;;12.13;3.88;;;16.60;99.90;;;;;;4969661;28;20034;-78
2023/08/07 10:25:39;;;;;;;9.40;3.63;;;16.80;99.90;;;;;;4991699;28;20034;-78
2023/08/07 10:28:05;;;;;;;9.68;4.05;;;17.00;99.90;;;;;;5013977;28;20038;-78
2023/08/07 10:30:31;;;;;;;7.88;3.65;;;17.20;99.90;;;;;;4986445;28;20034;-77
2023/08/07 10:32:57;;;;;;;12.23;4.50;;;17.20;99.90;;;;;;5010362;28;20062;-77
2023/08/07 10:35:30;;;;;;;11.63;3.97;;;17.10;99.90;;;;;;5014689;28;20037;-78
2023/08/07 10:38:07;;;;;;;7.53;2.92;;;17.20;99.90;;;;;;4983007;28;20148;-78
2023/08/07 10:40:32;;;;;;;11.25;3.58;;;17.40;99.90;;;;;;5002777;28;20026;-77
2023/08/07 10:42:59;;;;;;;9.35;3.25;;;17.80;99.90;;;;;;5015167;28;20496;-78
2023/08/07 10:45:26;;;;;;;9.35;3.00;;;17.90;99.90;;;;;;5002204;28;20467;-78
2023/08/07 10:48:10;;;;;;;11.55;3.70;;;18.00;99.90;;;;;;4998585;28;20037;-76
2023/08/07 10:50:51;;;;;;;12.95;3.95;;;18.00;99.90;;;;;;4999968;28;20049;-79
2023/08/07 10:53:31;;;;;;;11.00;3.88;;;17.50;99.90;;;;;;5011441;28;20030;-78
2023/08/07 10:56:07;;;;;;;13.93;4.47;;;17.30;99.90;;;;;;5012590;28;20042;-78
2023/08/07 10:58:40;;;;;;;10.95;4.07;;;17.10;99.90;;;;;;4985655;28;20396;-79
2023/08/07 11:01:39;;;;;;;10.27;3.08;;;16.90;99.90;;;;;;5015027;28;20034;-79
2023/08/07 11:04:11;;;;;;;11.98;3.35;;;16.70;99.90;;;;;;5014323;28;20034;-78
2023/08/07 11:06:37;;;;;;;4.95;2.70;;;16.50;99.90;;;;;;5018451;28;20366;-78
2023/08/07 11:09:04;;;;;;;7.47;3.38;;;16.40;99.90;;;;;;5017051;28;20034;-78
2023/08/07 11:11:42;;;;;;;5.03;2.92;;;16.30;99.90;;;;;;5004805;28;20022;-78
2023/08/07 11:14:13;;;;;;;16.42;4.53;;;16.60;99.90;;;;;;4991713;28;20113;-78
2023/08/07 11:16:38;;;;;;;9.10;3.78;;;16.60;99.90;;;;;;5003107;28;20044;-78
2023/08/07 11:19:04;;;;;;;14.65;4.18;;;16.50;99.90;;;;;;4997506;28;20038;-78
2023/08/07 11:21:32;;;;;;;16.38;5.07;;;16.60;99.90;;;;;;5002180;28;20038;-78
2023/08/07 11:24:01;;;;;;;16.10;4.63;;;16.80;99.90;;;;;;5015768;28;20036;-77
2023/08/07 11:26:27;;;;;;;14.20;4.45;;;17.20;99.90;;;;;;5004312;28;20034;-77
2023/08/07 11:28:53;;;;;;;12.18;4.28;;;17.30;99.90;;;;;;5017674;28;20045;-78
2023/08/07 11:31:19;;;;;;;18.98;4.60;;;17.50;99.90;;;;;;5016930;28;20037;-78
2023/08/07 11:33:45;;;;;;;10.80;4.65;;;17.70;99.90;;;;;;4986193;28;20036;-78
2023/08/07 11:36:17;;;;;;;17.15;4.93;;;18.00;99.90;;;;;;5016155;28;20073;-78
2023/08/07 11:38:43;;;;;;;12.43;4.72;;;18.20;99.90;;;;;;5016323;28;20105;-78
2023/08/07 11:41:13;;;;;;;18.58;4.68;;;18.60;99.90;;;;;;5016043;28;20024;-78
2023/08/07 11:43:38;;;;;;;16.00;5.55;;;19.00;99.90;;;;;;5017324;28;20428;-77
2023/08/07 11:46:05;;;;;;;14.00;4.30;;;19.20;99.90;;;;;;5019998;28;20030;-78
2023/08/07 11:48:32;;;;;;;8.75;3.28;;;19.10;99.90;;;;;;4990139;28;20054;-78
2023/08/07 11:50:58;;;;;;;9.90;3.05;;;19.00;99.90;;;;;;5002349;28;20038;-78
2023/08/07 11:53:27;;;;;;;10.90;2.95;;;18.80;99.90;;;;;;5015447;28;20069;-78
2023/08/07 11:55:54;;;;;;;8.20;3.10;;;18.80;99.90;;;;;;4983932;28;20049;-78
2023/08/07 11:58:20;;;;;;;10.40;2.63;;;18.60;99.90;;;;;;5017508;28;20671;-78
2023/08/07 12:00:46;;;;;;;7.47;2.72;;;18.40;99.90;;;;;;5015175;28;20032;-77
2023/08/07 12:03:38;;;;;;;7.30;2.97;;;18.30;99.90;;;;;;5014613;28;20427;-78
2023/08/07 12:06:04;;;;;;;5.63;2.22;;;18.30;99.90;;;;;;5016899;28;20026;-78
2023/08/07 12:08:37;;;;;;;10.85;2.55;;;18.50;99.90;;;;;;4998393;28;20032;-78
2023/08/07 12:11:11;;;;;;;6.10;2.70;;;18.80;99.90;;;;;;4995450;28;20460;-78
2023/08/07 12:13:38;;;;;;;12.48;2.50;;;19.00;99.90;;;;;;5016257;28;20520;-79
2023/08/07 12:16:03;;;;;;;11.05;3.30;;;19.20;99.90;;;;;;4991678;28;20041;-79
2023/08/07 12:18:30;;;;;;;8.82;2.60;;;19.40;99.90;;;;;;5016980;28;20042;-78
2023/08/07 12:21:00;;;;;;;7.53;2.47;;;19.70;99.90;;;;;;4998577;28;20175;-78
2023/08/07 12:23:25;;;;;;;7.88;2.83;;;19.90;99.90;;;;;;5001086;28;20022;-77
2023/08/07 12:25:52;;;;;;;9.35;2.88;;;20.20;99.90;;;;;;5013227;28;20037;-78
2023/08/07 12:28:18;;;;;;;6.97;1.70;;;20.20;99.90;;;;;;5014218;28;20034;-78
2023/08/07 12:30:45;;;;;;;5.45;1.92;;;20.60;99.90;;;;;;5012833;28;20481;-78
2023/08/07 12:33:10;;;;;;;7.30;2.80;;;20.90;99.90;;;;;;5001997;28;20374;-79
2023/08/07 12:35:36;;;;;;;6.82;2.10;;;21.20;99.90;;;;;;4986510;28;20037;-78
2023/08/07 12:38:02;;;;;;;8.27;2.08;;;21.30;99.90;;;;;;5001253;28;20036;-79
2023/08/07 12:40:29;;;;;;;4.13;1.67;;;21.50;99.90;;;;;;5015802;28;20045;-78